Time;durP1;ratioP1;P1;durP2;ratioP2;P2;SDS_P1;SDS_P2;PMS_P1;PMS_P2;Temp;Humidity;BMP_temperature;BMP_pressure;BME280_temperature;BME280_humidity;BME280_pressure;Samples;Min_cycle;Max_cycle;Signal;HPM_P1;HPM_P2
2023/07/27 00:00:05;;;;;;;;;2.00;2.00;;;;;;;;5118160;27;45428;-42
2023/07/27 00:02:30;;;;;;;;;5.00;3.00;;;;;;;;5118590;27;45455;-41
2023/07/27 00:04:56;;;;;;;;;2.50;2.50;;;;;;;;5121856;27;45607;-41
2023/07/27 00:07:21;;;;;;;;;5.00;3.00;;;;;;;;5121270;27;46151;-43
2023/07/27 00:09:46;;;;;;;;;1.75;1.75;;;;;;;;5121488;27;45492;-42
2023/07/27 00:12:11;;;;;;;;;2.75;2.00;;;;;;;;5121709;27;45437;-43
2023/07/27 00:14:36;;;;;;;;;3.00;2.25;;;;;;;;5121871;27;45400;-43
2023/07/27 00:17:01;;;;;;;;;2.00;2.00;;;;;;;;5121425;27;45443;-42
2023/07/27 00:19:27;;;;;;;;;2.00;1.25;;;;;;;;5121320;27;45276;-43
2023/07/27 00:21:52;;;;;;;;;2.25;2.25;;;;;;;;5102869;27;45342;-42
2023/07/27 00:24:17;;;;;;;;;1.25;1.25;;;;;;;;5121595;27;45558;-43
2023/07/27 00:26:42;;;;;;;;;2.75;2.75;;;;;;;;5121372;27;46085;-43
2023/07/27 00:29:08;;;;;;;;;2.00;2.00;;;;;;;;5121340;27;45330;-43
2023/07/27 00:31:33;;;;;;;;;0.75;0.75;;;;;;;;5121485;27;45557;-43
2023/07/27 00:33:58;;;;;;;;;2.25;1.00;;;;;;;;5121080;27;45232;-43
2023/07/27 00:36:23;;;;;;;;;2.00;2.00;;;;;;;;5120863;27;46308;-42
2023/07/27 00:38:48;;;;;;;;;1.25;1.25;;;;;;;;5121165;27;45336;-43
2023/07/27 00:41:15;;;;;;;;;2.00;2.00;;;;;;;;5121316;27;45272;-43
2023/07/27 00:43:40;;;;;;;;;1.00;1.00;;;;;;;;5121348;27;45428;-43
2023/07/27 00:46:06;;;;;;;;;2.00;2.00;;;;;;;;5121090;27;46190;-43
2023/07/27 00:48:31;;;;;;;;;1.00;1.00;;;;;;;;5121040;27;45380;-42
2023/07/27 00:50:56;;;;;;;;;1.00;1.00;;;;;;;;5120872;27;45406;-42
2023/07/27 00:53:22;;;;;;;;;4.75;2.00;;;;;;;;5121400;27;45390;-41
2023/07/27 00:55:47;;;;;;;;;1.25;1.00;;;;;;;;5120776;27;45962;-43
2023/07/27 00:58:12;;;;;;;;;3.50;1.00;;;;;;;;5120706;27;45457;-41
2023/07/27 01:00:40;;;;;;;;;2.00;2.00;;;;;;;;5120857;27;45214;-43
2023/07/27 01:03:05;;;;;;;;;4.00;2.00;;;;;;;;5120766;27;45305;-43
2023/07/27 01:05:31;;;;;;;;;2.00;2.00;;;;;;;;5120772;27;45357;-43
2023/07/27 01:07:56;;;;;;;;;1.25;1.25;;;;;;;;5120669;27;45376;-42
2023/07/27 01:10:25;;;;;;;;;2.00;2.00;;;;;;;;5102375;27;45417;-42
2023/07/27 01:12:57;;;;;;;;;1.50;1.50;;;;;;;;5121133;27;45324;-43
2023/07/27 01:15:23;;;;;;;;;1.00;1.00;;;;;;;;5119742;27;45299;-43
2023/07/27 01:17:49;;;;;;;;;2.20;1.00;;;;;;;;5120295;27;45342;-42
2023/07/27 01:20:23;;;;;;;;;1.00;1.00;;;;;;;;5120763;27;45398;-41
2023/07/27 01:22:56;;;;;;;;;1.75;1.75;;;;;;;;5120493;27;45496;-42
2023/07/27 01:25:45;;;;;;;;;2.20;1.00;;;;;;;;5120222;27;47207;-41
2023/07/27 01:28:19;;;;;;;;;1.20;1.20;;;;;;;;5120252;27;45211;-42
2023/07/27 01:30:48;;;;;;;;;2.00;2.00;;;;;;;;5120534;27;45227;-41
2023/07/27 01:33:14;;;;;;;;;1.00;1.00;;;;;;;;5120309;27;45226;-42
2023/07/27 01:35:54;;;;;;;;;1.00;1.00;;;;;;;;5120204;27;45429;-43
2023/07/27 01:38:20;;;;;;;;;4.40;2.00;;;;;;;;5120061;27;45354;-41
2023/07/27 01:40:46;;;;;;;;;1.60;1.60;;;;;;;;5120377;27;45448;-47
2023/07/27 01:43:12;;;;;;;;;1.25;1.00;;;;;;;;5120356;27;45323;-42
2023/07/27 01:45:38;;;;;;;;;1.00;1.00;;;;;;;;5120046;27;45408;-41
2023/07/27 01:48:04;;;;;;;;;2.00;0.50;;;;;;;;5120054;27;45317;-42
2023/07/27 01:50:30;;;;;;;;;2.00;2.00;;;;;;;;5120014;27;45488;-43
2023/07/27 01:52:55;;;;;;;;;1.00;1.00;;;;;;;;5120112;27;45517;-41
2023/07/27 01:55:22;;;;;;;;;1.00;1.00;;;;;;;;5119964;27;46242;-44
2023/07/27 01:57:48;;;;;;;;;2.80;2.20;;;;;;;;5119809;27;45374;-41
2023/07/27 02:00:14;;;;;;;;;1.20;1.20;;;;;;;;5119813;27;45435;-42
2023/07/27 02:02:39;;;;;;;;;3.00;1.00;;;;;;;;5120204;27;45276;-44
2023/07/27 02:05:05;;;;;;;;;1.50;1.25;;;;;;;;5119809;27;46188;-43
2023/07/27 02:07:34;;;;;;;;;2.25;1.00;;;;;;;;5118851;27;45362;-42
2023/07/27 02:09:59;;;;;;;;;3.20;1.60;;;;;;;;5119831;27;45213;-42
2023/07/27 02:12:32;;;;;;;;;3.00;1.75;;;;;;;;5119844;27;45549;-42
2023/07/27 02:15:02;;;;;;;;;1.00;1.00;;;;;;;;5119341;27;46407;-42
2023/07/27 02:17:34;;;;;;;;;2.40;2.40;;;;;;;;5119592;27;45384;-45
2023/07/27 02:20:02;;;;;;;;;2.00;2.00;;;;;;;;5119644;27;45350;-42
2023/07/27 02:22:28;;;;;;;;;1.75;0.50;;;;;;;;5119495;27;45326;-43
2023/07/27 02:24:53;;;;;;;;;0.75;0.75;;;;;;;;5119517;27;45444;-43
2023/07/27 02:27:18;;;;;;;;;0.75;0.75;;;;;;;;5117260;27;45378;-43
2023/07/27 02:29:44;;;;;;;;;3.00;1.50;;;;;;;;5119617;27;45449;-43
2023/07/27 02:32:09;;;;;;;;;1.00;1.00;;;;;;;;5119377;27;45318;-43
2023/07/27 02:34:34;;;;;;;;;0.00;0.00;;;;;;;;5119172;27;45947;-42
2023/07/27 02:36:59;;;;;;;;;4.00;3.00;;;;;;;;5119193;27;45560;-41
2023/07/27 02:39:24;;;;;;;;;1.00;1.00;;;;;;;;5118788;27;45242;-43
2023/07/27 02:41:50;;;;;;;;;1.00;1.00;;;;;;;;5119534;27;45236;-42
2023/07/27 02:44:15;;;;;;;;;1.00;1.00;;;;;;;;5119217;27;45421;-42
2023/07/27 02:46:40;;;;;;;;;1.00;1.00;;;;;;;;5119085;27;45543;-42
2023/07/27 02:49:05;;;;;;;;;0.25;0.25;;;;;;;;5119312;27;45302;-42
2023/07/27 02:51:30;;;;;;;;;0.25;0.25;;;;;;;;5119210;27;45448;-43
2023/07/27 02:53:55;;;;;;;;;0.00;0.00;;;;;;;;5118913;27;45451;-43
2023/07/27 02:56:21;;;;;;;;;1.00;1.00;;;;;;;;5119046;27;45299;-42
2023/07/27 02:58:46;;;;;;;;;0.00;0.00;;;;;;;;5118920;27;45321;-42
2023/07/27 03:01:11;;;;;;;;;1.00;1.00;;;;;;;;5119369;27;45396;-43
2023/07/27 03:03:37;;;;;;;;;3.00;0.50;;;;;;;;5118299;27;45400;-46
2023/07/27 03:06:02;;;;;;;;;1.00;1.00;;;;;;;;5118925;27;45427;-43
2023/07/27 03:08:28;;;;;;;;;1.00;1.00;;;;;;;;5118669;27;45214;-43
2023/07/27 03:10:53;;;;;;;;;1.00;1.00;;;;;;;;5119023;27;45427;-43
2023/07/27 03:13:18;;;;;;;;;3.50;1.00;;;;;;;;5118751;27;46137;-42
2023/07/27 03:15:44;;;;;;;;;2.00;0.00;;;;;;;;5118593;27;45436;-42
2023/07/27 03:18:09;;;;;;;;;0.00;0.00;;;;;;;;5118925;27;45285;-42
2023/07/27 03:20:40;;;;;;;;;1.00;0.00;;;;;;;;5118761;27;45395;-44
2023/07/27 03:23:06;;;;;;;;;0.40;0.40;;;;;;;;5118231;27;45481;-41
2023/07/27 03:25:32;;;;;;;;;0.00;0.00;;;;;;;;5118548;27;45265;-42
2023/07/27 03:27:57;;;;;;;;;3.50;1.50;;;;;;;;5118488;27;45227;-43
2023/07/27 03:30:22;;;;;;;;;1.00;1.00;;;;;;;;5118746;27;45145;-42
2023/07/27 03:32:47;;;;;;;;;0.00;0.00;;;;;;;;5118342;27;46426;-42
2023/07/27 03:35:13;;;;;;;;;0.75;0.75;;;;;;;;5118298;27;45261;-43
2023/07/27 03:37:38;;;;;;;;;1.00;0.50;;;;;;;;5117976;27;45407;-42
2023/07/27 03:40:03;;;;;;;;;0.25;0.25;;;;;;;;5118407;27;45560;-42
2023/07/27 03:42:28;;;;;;;;;0.75;0.75;;;;;;;;5117685;27;45491;-42
2023/07/27 03:44:53;;;;;;;;;1.00;1.00;;;;;;;;5117908;27;45266;-42
2023/07/27 03:47:19;;;;;;;;;2.00;2.00;;;;;;;;5117968;27;45407;-41
2023/07/27 03:49:44;;;;;;;;;3.00;3.00;;;;;;;;5118164;27;45331;-42
2023/07/27 03:52:09;;;;;;;;;0.00;0.00;;;;;;;;5117787;27;46976;-43
2023/07/27 03:54:34;;;;;;;;;1.75;1.00;;;;;;;;5117855;27;45176;-43
2023/07/27 03:56:59;;;;;;;;;2.25;0.75;;;;;;;;5118171;27;45438;-42
2023/07/27 03:59:25;;;;;;;;;0.75;0.75;;;;;;;;5118241;27;45484;-44
2023/07/27 04:01:50;;;;;;;;;0.50;0.00;;;;;;;;5118048;27;45280;-43
2023/07/27 04:04:15;;;;;;;;;3.75;1.25;;;;;;;;5117750;27;45395;-42
2023/07/27 04:06:41;;;;;;;;;1.00;1.00;;;;;;;;5099574;27;45240;-43
2023/07/27 04:09:07;;;;;;;;;0.75;0.75;;;;;;;;5118050;27;45356;-42
2023/07/27 04:11:32;;;;;;;;;1.00;1.00;;;;;;;;5117154;27;45634;-40
2023/07/27 04:13:57;;;;;;;;;1.00;1.00;;;;;;;;5117796;27;45303;-41
2023/07/27 04:16:22;;;;;;;;;2.00;0.00;;;;;;;;5117950;27;45408;-42
2023/07/27 04:18:47;;;;;;;;;0.00;0.00;;;;;;;;5118108;27;45381;-42
2023/07/27 04:21:13;;;;;;;;;0.00;0.00;;;;;;;;5117712;27;46164;-46
2023/07/27 04:23:38;;;;;;;;;2.00;0.00;;;;;;;;5117699;27;45438;-41
2023/07/27 04:26:03;;;;;;;;;1.00;0.00;;;;;;;;5117878;27;45299;-42
2023/07/27 04:28:28;;;;;;;;;0.75;0.00;;;;;;;;5117952;27;45298;-42
2023/07/27 04:30:53;;;;;;;;;0.75;0.75;;;;;;;;5117786;27;45953;-43
2023/07/27 04:33:19;;;;;;;;;1.00;1.00;;;;;;;;5117470;27;45370;-40
2023/07/27 04:35:44;;;;;;;;;0.00;0.00;;;;;;;;5118226;27;45304;-42
2023/07/27 04:38:09;;;;;;;;;0.00;0.00;;;;;;;;5118474;27;45536;-42
2023/07/27 04:40:35;;;;;;;;;0.00;0.00;;;;;;;;5117780;27;47053;-41
2023/07/27 04:43:00;;;;;;;;;0.00;0.00;;;;;;;;5118074;27;45397;-42
2023/07/27 04:45:25;;;;;;;;;1.00;1.00;;;;;;;;5117885;27;45534;-43
2023/07/27 04:47:50;;;;;;;;;1.50;0.50;;;;;;;;5117812;27;45373;-44
2023/07/27 04:50:15;;;;;;;;;0.50;0.50;;;;;;;;5119036;27;46566;-43
2023/07/27 04:52:40;;;;;;;;;1.00;1.00;;;;;;;;5120775;27;45488;-42
2023/07/27 04:55:06;;;;;;;;;1.00;0.25;;;;;;;;5121214;27;45380;-43
2023/07/27 04:57:31;;;;;;;;;1.00;1.00;;;;;;;;5120987;27;45207;-43
2023/07/27 04:59:56;;;;;;;;;1.00;1.00;;;;;;;;5120681;27;45236;-42
2023/07/27 05:02:21;;;;;;;;;2.00;0.50;;;;;;;;5102391;27;45430;-43
2023/07/27 05:04:49;;;;;;;;;1.00;1.00;;;;;;;;5120775;27;45415;-43
2023/07/27 05:07:14;;;;;;;;;1.00;1.00;;;;;;;;5120898;27;45207;-43
2023/07/27 05:09:39;;;;;;;;;1.00;1.00;;;;;;;;5120642;27;46433;-43
2023/07/27 05:12:04;;;;;;;;;1.75;0.75;;;;;;;;5120561;27;45428;-43
2023/07/27 05:14:30;;;;;;;;;0.00;0.00;;;;;;;;5120775;27;45199;-43
2023/07/27 05:16:55;;;;;;;;;0.00;0.00;;;;;;;;5120864;27;45346;-47
2023/07/27 05:19:20;;;;;;;;;0.50;0.50;;;;;;;;5120402;27;46024;-43
2023/07/27 05:21:45;;;;;;;;;0.00;0.00;;;;;;;;5120435;27;45485;-43
2023/07/27 05:24:10;;;;;;;;;0.00;0.00;;;;;;;;5120526;27;45437;-43
2023/07/27 05:26:36;;;;;;;;;1.00;0.75;;;;;;;;5120780;27;45368;-44
2023/07/27 05:29:01;;;;;;;;;3.00;1.00;;;;;;;;5120382;27;45562;-44
2023/07/27 05:31:26;;;;;;;;;1.00;0.25;;;;;;;;5120483;27;45446;-43
2023/07/27 05:33:51;;;;;;;;;1.00;0.00;;;;;;;;5120089;27;45429;-43
2023/07/27 05:36:16;;;;;;;;;1.00;1.00;;;;;;;;5120489;27;45568;-43
2023/07/27 05:38:42;;;;;;;;;3.00;1.00;;;;;;;;5119780;27;45445;-42
2023/07/27 05:41:07;;;;;;;;;0.00;0.00;;;;;;;;5119285;27;45345;-43
2023/07/27 05:43:32;;;;;;;;;1.50;1.00;;;;;;;;5120384;27;45471;-43
2023/07/27 05:45:58;;;;;;;;;1.00;1.00;;;;;;;;5101684;27;45362;-42
2023/07/27 05:48:23;;;;;;;;;1.75;1.75;;;;;;;;5120187;27;45434;-43
2023/07/27 05:50:51;;;;;;;;;1.00;0.75;;;;;;;;5120371;27;45390;-43
2023/07/27 05:53:16;;;;;;;;;1.00;1.00;;;;;;;;5121138;27;45249;-43
2023/07/27 05:55:41;;;;;;;;;1.00;1.00;;;;;;;;5120279;27;45379;-43
2023/07/27 05:58:06;;;;;;;;;1.75;1.75;;;;;;;;5119770;27;45899;-42
2023/07/27 06:00:32;;;;;;;;;0.00;0.00;;;;;;;;5119853;27;45433;-42
2023/07/27 06:02:57;;;;;;;;;1.75;1.00;;;;;;;;5120127;27;45191;-43
2023/07/27 06:05:22;;;;;;;;;2.00;2.00;;;;;;;;5120207;27;45248;-42
2023/07/27 06:07:47;;;;;;;;;1.00;1.00;;;;;;;;5119631;27;45284;-41
2023/07/27 06:10:12;;;;;;;;;1.00;1.00;;;;;;;;5101226;27;45413;-42
2023/07/27 06:12:38;;;;;;;;;1.00;1.00;;;;;;;;5119947;27;45283;-43
2023/07/27 06:15:03;;;;;;;;;1.00;1.00;;;;;;;;5119926;27;45230;-43
2023/07/27 06:17:28;;;;;;;;;2.50;1.75;;;;;;;;5119356;27;46277;-42
2023/07/27 06:19:54;;;;;;;;;2.25;2.00;;;;;;;;5119587;27;45397;-42
2023/07/27 06:22:19;;;;;;;;;3.00;1.00;;;;;;;;5119647;27;45512;-43
2023/07/27 06:24:44;;;;;;;;;1.25;1.25;;;;;;;;5119706;27;45408;-42
2023/07/27 06:27:09;;;;;;;;;1.00;1.00;;;;;;;;5119344;27;46262;-42
2023/07/27 06:29:34;;;;;;;;;1.00;1.00;;;;;;;;5118950;27;45160;-43
2023/07/27 06:32:00;;;;;;;;;2.00;2.00;;;;;;;;5119147;27;45373;-43
2023/07/27 06:34:26;;;;;;;;;3.00;2.25;;;;;;;;5119478;27;45439;-43
2023/07/27 06:36:51;;;;;;;;;4.75;3.25;;;;;;;;5119189;27;45395;-41
2023/07/27 06:39:17;;;;;;;;;2.75;2.75;;;;;;;;5100779;27;45406;-43
2023/07/27 06:41:42;;;;;;;;;1.00;1.00;;;;;;;;5119680;27;45436;-41
2023/07/27 06:44:08;;;;;;;;;2.00;2.00;;;;;;;;5119681;27;45421;-42
2023/07/27 06:46:33;;;;;;;;;2.00;1.50;;;;;;;;5100376;27;47517;-42
2023/07/27 06:48:58;;;;;;;;;2.00;1.00;;;;;;;;5119164;27;45249;-43
2023/07/27 06:51:24;;;;;;;;;0.50;0.50;;;;;;;;5119295;27;45472;-43
2023/07/27 06:53:49;;;;;;;;;2.00;1.50;;;;;;;;5119188;27;45392;-43
2023/07/27 06:56:14;;;;;;;;;9.00;3.00;;;;;;;;5118931;27;45996;-42
2023/07/27 06:58:39;;;;;;;;;5.50;1.00;;;;;;;;5118429;27;45340;-43
2023/07/27 07:01:05;;;;;;;;;3.00;3.00;;;;;;;;5119068;27;45321;-43
2023/07/27 07:03:30;;;;;;;;;1.50;1.25;;;;;;;;5119036;27;45294;-42
2023/07/27 07:05:55;;;;;;;;;3.25;3.25;;;;;;;;5118612;27;46168;-44
2023/07/27 07:08:21;;;;;;;;;3.00;2.00;;;;;;;;5118773;27;45396;-43
2023/07/27 07:10:47;;;;;;;;;2.00;0.00;;;;;;;;5118807;27;45265;-41
2023/07/27 07:13:12;;;;;;;;;4.25;1.00;;;;;;;;5118307;27;45374;-42
2023/07/27 07:15:37;;;;;;;;;0.00;0.00;;;;;;;;5118513;27;46641;-43
2023/07/27 07:18:02;;;;;;;;;4.75;2.00;;;;;;;;5118500;27;45339;-42
2023/07/27 07:20:28;;;;;;;;;0.75;0.75;;;;;;;;5100139;27;45417;-43
2023/07/27 07:22:53;;;;;;;;;1.00;1.00;;;;;;;;5118843;27;45230;-43
2023/07/27 07:25:18;;;;;;;;;2.75;1.00;;;;;;;;5118467;27;46302;-42
2023/07/27 07:27:43;;;;;;;;;6.00;2.25;;;;;;;;5118274;27;45405;-43
2023/07/27 07:30:09;;;;;;;;;4.00;1.25;;;;;;;;5118547;27;45404;-43
2023/07/27 07:32:34;;;;;;;;;2.25;2.25;;;;;;;;5118283;27;45456;-43
2023/07/27 07:34:59;;;;;;;;;4.00;3.00;;;;;;;;5118160;27;46031;-44
2023/07/27 07:37:25;;;;;;;;;8.25;3.00;;;;;;;;5118245;27;45369;-43
2023/07/27 07:39:50;;;;;;;;;4.50;3.25;;;;;;;;5117636;27;45491;-43
2023/07/27 07:42:15;;;;;;;;;4.00;2.00;;;;;;;;5118752;27;45248;-43
2023/07/27 07:44:41;;;;;;;;;4.00;4.00;;;;;;;;5118246;27;46072;-42
2023/07/27 07:47:06;;;;;;;;;2.50;1.00;;;;;;;;5118333;27;45317;-42
2023/07/27 07:49:31;;;;;;;;;6.00;3.00;;;;;;;;5118280;27;45377;-43
2023/07/27 07:51:56;;;;;;;;;4.75;4.00;;;;;;;;5118342;27;45425;-44
2023/07/27 07:54:21;;;;;;;;;3.25;3.25;;;;;;;;5118048;27;47017;-42
2023/07/27 07:56:47;;;;;;;;;3.67;3.67;;;;;;;;5117979;27;45240;-42
2023/07/27 07:59:13;;;;;;;;;3.25;3.25;;;;;;;;5117523;27;45353;-43
2023/07/27 08:01:38;;;;;;;;;2.00;2.00;;;;;;;;5118194;27;45460;-44
2023/07/27 08:04:04;;;;;;;;;3.00;3.00;;;;;;;;5117844;27;45481;-43
2023/07/27 08:06:30;;;;;;;;;4.00;2.40;;;;;;;;5117839;27;45320;-43
2023/07/27 08:08:55;;;;;;;;;4.25;3.00;;;;;;;;5117862;27;45313;-41
2023/07/27 08:11:20;;;;;;;;;1.00;1.00;;;;;;;;5118052;27;45401;-43
2023/07/27 08:13:45;;;;;;;;;2.25;1.50;;;;;;;;5117546;27;47173;-44
2023/07/27 08:16:11;;;;;;;;;2.00;2.00;;;;;;;;5117971;27;45468;-43
2023/07/27 08:18:36;;;;;;;;;3.00;1.00;;;;;;;;5117991;27;45229;-42
2023/07/27 08:21:03;;;;;;;;;2.00;1.50;;;;;;;;5118002;27;45344;-43
2023/07/27 08:23:29;;;;;;;;;2.00;0.80;;;;;;;;5117761;27;46299;-44
2023/07/27 08:25:55;;;;;;;;;0.50;0.50;;;;;;;;5121478;27;45396;-42
2023/07/27 08:28:20;;;;;;;;;1.80;0.80;;;;;;;;5121294;27;45395;-41
2023/07/27 08:30:46;;;;;;;;;0.75;0.75;;;;;;;;5121501;27;45467;-43
2023/07/27 08:33:12;;;;;;;;;1.00;1.00;;;;;;;;5120853;27;46111;-43
2023/07/27 08:35:38;;;;;;;;;1.00;1.00;;;;;;;;5120859;27;45516;-42
2023/07/27 08:38:03;;;;;;;;;0.50;0.50;;;;;;;;5121034;27;45333;-43
2023/07/27 08:40:29;;;;;;;;;3.00;1.00;;;;;;;;5121190;27;45398;-44
2023/07/27 08:42:55;;;;;;;;;1.40;1.40;;;;;;;;5120967;27;46282;-43
2023/07/27 08:45:21;;;;;;;;;1.75;1.75;;;;;;;;5120734;27;45293;-42
2023/07/27 08:47:47;;;;;;;;;1.75;1.75;;;;;;;;5120763;27;45367;-43
2023/07/27 08:50:13;;;;;;;;;1.60;0.20;;;;;;;;5120426;27;45492;-45
2023/07/27 08:52:38;;;;;;;;;1.50;1.50;;;;;;;;5120674;27;47085;-44
2023/07/27 08:55:04;;;;;;;;;1.50;1.50;;;;;;;;5120838;27;45414;-44
2023/07/27 08:57:29;;;;;;;;;0.75;0.25;;;;;;;;5102218;27;45492;-44
2023/07/27 08:59:55;;;;;;;;;1.25;1.25;;;;;;;;5120714;27;45366;-44
2023/07/27 09:02:20;;;;;;;;;2.00;1.50;;;;;;;;5120647;27;45219;-43
2023/07/27 09:04:45;;;;;;;;;2.00;0.25;;;;;;;;5120488;27;45430;-43
2023/07/27 09:07:10;;;;;;;;;1.50;1.50;;;;;;;;5120974;27;45392;-42
2023/07/27 09:09:36;;;;;;;;;1.50;1.50;;;;;;;;5120818;27;46224;-40
2023/07/27 09:12:03;;;;;;;;;2.00;2.00;;;;;;;;5120484;27;45414;-42
2023/07/27 09:14:33;;;;;;;;;3.00;2.00;;;;;;;;5120284;27;45301;-43
2023/07/27 09:16:58;;;;;;;;;1.80;1.80;;;;;;;;5120537;27;45435;-44
2023/07/27 09:19:25;;;;;;;;;1.75;1.75;;;;;;;;5120986;27;45378;-44
2023/07/27 09:21:52;;;;;;;;;2.00;2.00;;;;;;;;5119743;27;45299;-44
2023/07/27 09:24:18;;;;;;;;;1.80;0.00;;;;;;;;5119554;27;45401;-44
2023/07/27 09:26:46;;;;;;;;;1.00;1.00;;;;;;;;5120798;27;45353;-43
2023/07/27 09:29:12;;;;;;;;;1.00;1.00;;;;;;;;5120717;27;45428;-44
2023/07/27 09:31:45;;;;;;;;;2.25;0.75;;;;;;;;5120032;27;46128;-44
2023/07/27 09:34:10;;;;;;;;;1.00;1.00;;;;;;;;5120044;27;45366;-41
2023/07/27 09:36:35;;;;;;;;;2.00;2.00;;;;;;;;5119808;27;45321;-42
2023/07/27 09:39:00;;;;;;;;;3.00;1.00;;;;;;;;5120338;27;45322;-42
2023/07/27 09:41:25;;;;;;;;;2.00;1.00;;;;;;;;5120061;27;45540;-41
2023/07/27 09:43:52;;;;;;;;;1.00;1.00;;;;;;;;5119976;27;45723;-46
2023/07/27 09:46:21;;;;;;;;;1.00;1.00;;;;;;;;5120201;27;45165;-41
2023/07/27 09:48:46;;;;;;;;;1.40;1.40;;;;;;;;5120247;27;45404;-42
2023/07/27 09:51:12;;;;;;;;;1.00;1.00;;;;;;;;5119906;27;46143;-41
2023/07/27 09:53:40;;;;;;;;;1.80;1.80;;;;;;;;5120013;27;45382;-43
2023/07/27 09:56:05;;;;;;;;;2.60;2.00;;;;;;;;5119829;27;45381;-43
2023/07/27 09:58:32;;;;;;;;;1.00;1.00;;;;;;;;5120210;27;45532;-42
2023/07/27 10:00:57;;;;;;;;;2.20;2.20;;;;;;;;5119583;27;46539;-43
2023/07/27 10:03:23;;;;;;;;;1.25;1.00;;;;;;;;5120101;27;45296;-44
2023/07/27 10:05:48;;;;;;;;;1.00;1.00;;;;;;;;5119890;27;45418;-44
2023/07/27 10:08:15;;;;;;;;;1.50;1.00;;;;;;;;5120049;27;45255;-46
2023/07/27 10:10:42;;;;;;;;;2.60;1.00;;;;;;;;5119430;27;45697;-44
2023/07/27 10:13:30;;;;;;;;;2.00;2.00;;;;;;;;5119567;27;45480;-44
2023/07/27 10:15:56;;;;;;;;;1.00;1.00;;;;;;;;5119550;27;45321;-45
2023/07/27 10:18:25;;;;;;;;;1.00;1.00;;;;;;;;5119944;27;45294;-43
2023/07/27 10:20:51;;;;;;;;;2.00;2.00;;;;;;;;5119691;27;45494;-43
2023/07/27 10:23:18;;;;;;;;;2.00;2.00;;;;;;;;5119507;27;45327;-42
2023/07/27 10:25:55;;;;;;;;;1.80;1.60;;;;;;;;5119267;27;45393;-43
2023/07/27 10:28:40;;;;;;;;;4.80;2.40;;;;;;;;5119682;27;45465;-44
2023/07/27 10:31:24;;;;;;;;;4.00;2.20;;;;;;;;5119415;27;46196;-43
2023/07/27 10:33:53;;;;;;;;;2.40;1.40;;;;;;;;5119283;27;45408;-42
2023/07/27 10:36:20;;;;;;;;;0.20;0.20;;;;;;;;5119508;27;45215;-43
2023/07/27 10:38:55;;;;;;;;;2.40;2.40;;;;;;;;5119369;27;45208;-43
2023/07/27 10:41:22;;;;;;;;;1.80;1.80;;;;;;;;5118952;27;46160;-45
2023/07/27 10:44:06;;;;;;;;;1.60;1.40;;;;;;;;5119081;27;45289;-45
2023/07/27 10:46:31;;;;;;;;;2.00;2.00;;;;;;;;5119126;27;45399;-45
2023/07/27 10:48:57;;;;;;;;;3.50;2.75;;;;;;;;5118629;27;45326;-44
2023/07/27 10:51:24;;;;;;;;;1.80;1.40;;;;;;;;5117966;27;46357;-43
2023/07/27 10:53:49;;;;;;;;;4.00;3.00;;;;;;;;5118868;27;45479;-42
2023/07/27 10:56:15;;;;;;;;;2.00;2.00;;;;;;;;5119045;27;45404;-43
2023/07/27 10:58:40;;;;;;;;;1.00;1.00;;;;;;;;5119072;27;45291;-45
2023/07/27 11:01:06;;;;;;;;;4.50;1.75;;;;;;;;5118663;27;45569;-43
2023/07/27 11:03:31;;;;;;;;;2.75;2.00;;;;;;;;5118672;27;45298;-42
2023/07/27 11:06:06;;;;;;;;;1.00;1.00;;;;;;;;5119006;27;45251;-43
2023/07/27 11:08:35;;;;;;;;;2.80;1.20;;;;;;;;5119073;27;45330;-43
2023/07/27 11:11:12;;;;;;;;;3.40;1.80;;;;;;;;5118564;27;47112;-42
2023/07/27 11:13:37;;;;;;;;;0.40;0.00;;;;;;;;5118620;27;45259;-43
2023/07/27 11:16:03;;;;;;;;;1.75;1.75;;;;;;;;5100434;27;45315;-42
2023/07/27 11:18:28;;;;;;;;;1.75;1.75;;;;;;;;5119010;27;45439;-42
2023/07/27 11:20:54;;;;;;;;;1.50;1.50;;;;;;;;5118373;27;46993;-44
2023/07/27 11:23:20;;;;;;;;;2.00;1.75;;;;;;;;5118797;27;45314;-42
2023/07/27 11:25:46;;;;;;;;;3.00;1.40;;;;;;;;5118522;27;45322;-43
2023/07/27 11:28:12;;;;;;;;;2.00;2.00;;;;;;;;5119009;27;45286;-42
2023/07/27 11:30:37;;;;;;;;;2.00;2.00;;;;;;;;5118288;27;46257;-42
2023/07/27 11:33:03;;;;;;;;;8.00;5.00;;;;;;;;5118366;27;45251;-43
2023/07/27 11:35:28;;;;;;;;;4.00;2.75;;;;;;;;5117774;27;45896;-41
2023/07/27 11:37:54;;;;;;;;;5.00;3.00;;;;;;;;5118482;27;45346;-43
2023/07/27 11:40:19;;;;;;;;;4.00;4.00;;;;;;;;5118204;27;46475;-43
2023/07/27 11:42:45;;;;;;;;;4.25;3.00;;;;;;;;5099841;27;45237;-43
2023/07/27 11:45:10;;;;;;;;;3.50;3.50;;;;;;;;5118402;27;45226;-42
2023/07/27 11:47:39;;;;;;;;;5.00;2.75;;;;;;;;5118388;27;45202;-42
2023/07/27 11:50:06;;;;;;;;;4.00;3.20;;;;;;;;5118015;27;46006;-43
2023/07/27 11:52:31;;;;;;;;;9.80;4.00;;;;;;;;5118021;27;45298;-43
2023/07/27 11:54:59;;;;;;;;;2.75;1.75;;;;;;;;5118315;27;45290;-42
2023/07/27 11:57:27;;;;;;;;;2.60;2.60;;;;;;;;5117896;27;45441;-41
2023/07/27 12:00:13;;;;;;;;;3.00;3.00;;;;;;;;5120482;27;46268;-41
2023/07/27 12:02:45;;;;;;;;;3.60;2.80;;;;;;;;5121604;27;45382;-42
2023/07/27 12:05:14;;;;;;;;;2.00;2.00;;;;;;;;5121855;27;45224;-41
2023/07/27 12:07:39;;;;;;;;;3.20;3.20;;;;;;;;5121796;27;45385;-42
2023/07/27 12:10:04;;;;;;;;;4.00;4.00;;;;;;;;5121672;27;45491;-43
2023/07/27 12:12:30;;;;;;;;;2.50;2.50;;;;;;;;5121590;27;45230;-43
2023/07/27 12:14:58;;;;;;;;;3.00;3.00;;;;;;;;5121909;27;45388;-43
2023/07/27 12:17:23;;;;;;;;;3.80;3.80;;;;;;;;5121684;27;45616;-43
2023/07/27 12:19:49;;;;;;;;;4.00;4.00;;;;;;;;5121373;27;47404;-44
2023/07/27 12:22:14;;;;;;;;;4.00;3.00;;;;;;;;5121415;27;45305;-46
2023/07/27 12:24:43;;;;;;;;;3.25;3.25;;;;;;;;5121602;27;45307;-42
2023/07/27 12:27:09;;;;;;;;;3.00;3.00;;;;;;;;5121289;27;45588;-42
2023/07/27 12:29:34;;;;;;;;;6.00;3.50;;;;;;;;5121150;27;46076;-43
2023/07/27 12:31:59;;;;;;;;;5.00;4.50;;;;;;;;5120932;27;45278;-44
2023/07/27 12:34:25;;;;;;;;;2.00;2.00;;;;;;;;5120493;27;45222;-44
2023/07/27 12:36:50;;;;;;;;;4.00;2.25;;;;;;;;5121310;27;45533;-43
2023/07/27 12:39:15;;;;;;;;;4.25;4.00;;;;;;;;5120834;27;46302;-42
2023/07/27 12:41:41;;;;;;;;;5.50;4.25;;;;;;;;5120809;27;45449;-43
2023/07/27 12:44:06;;;;;;;;;3.25;3.25;;;;;;;;5120980;27;45306;-45
2023/07/27 12:46:31;;;;;;;;;3.50;3.50;;;;;;;;5121295;27;45341;-43
2023/07/27 12:48:56;;;;;;;;;4.00;2.50;;;;;;;;5120926;27;45499;-43
2023/07/27 12:51:21;;;;;;;;;7.25;5.75;;;;;;;;5121012;27;45488;-43
2023/07/27 12:53:47;;;;;;;;;6.00;4.00;;;;;;;;5121251;27;45321;-43
2023/07/27 12:56:12;;;;;;;;;3.25;2.00;;;;;;;;5121042;27;45420;-43
2023/07/27 12:58:37;;;;;;;;;4.75;3.25;;;;;;;;5120211;27;45297;-44
2023/07/27 13:01:02;;;;;;;;;5.25;3.00;;;;;;;;5120558;27;45275;-43
2023/07/27 13:03:28;;;;;;;;;3.00;3.00;;;;;;;;5120962;27;45333;-41
2023/07/27 13:05:53;;;;;;;;;2.00;2.00;;;;;;;;5121172;27;45356;-42
2023/07/27 13:08:18;;;;;;;;;5.75;3.25;;;;;;;;5120715;27;46292;-42
2023/07/27 13:10:43;;;;;;;;;7.75;4.00;;;;;;;;5119274;27;45424;-41
2023/07/27 13:13:09;;;;;;;;;3.25;3.25;;;;;;;;5120556;27;45320;-42
2023/07/27 13:15:36;;;;;;;;;2.50;2.50;;;;;;;;5120908;27;45362;-44
2023/07/27 13:18:02;;;;;;;;;4.00;3.00;;;;;;;;5120292;27;47004;-43
2023/07/27 13:20:27;;;;;;;;;5.20;5.20;;;;;;;;5120487;27;45416;-42
2023/07/27 13:22:52;;;;;;;;;3.50;3.50;;;;;;;;5120786;27;45500;-43
2023/07/27 13:25:17;;;;;;;;;6.25;3.25;;;;;;;;5120849;27;45342;-43
2023/07/27 13:27:43;;;;;;;;;5.25;5.00;;;;;;;;5120355;27;46292;-43
2023/07/27 13:30:08;;;;;;;;;4.00;4.00;;;;;;;;5120157;27;45440;-43
2023/07/27 13:32:33;;;;;;;;;3.75;3.75;;;;;;;;5120194;27;45489;-44
2023/07/27 13:34:59;;;;;;;;;5.50;4.25;;;;;;;;5120662;27;45310;-43
2023/07/27 13:37:25;;;;;;;;;4.00;4.00;;;;;;;;5120065;27;47028;-42
2023/07/27 13:39:50;;;;;;;;;3.00;3.00;;;;;;;;5120332;27;45312;-44
2023/07/27 13:42:15;;;;;;;;;8.50;6.25;;;;;;;;5120161;27;45271;-41
2023/07/27 13:44:40;;;;;;;;;5.75;3.50;;;;;;;;5120387;27;45451;-43
2023/07/27 13:47:05;;;;;;;;;9.00;4.50;;;;;;;;5120188;27;45503;-42
2023/07/27 13:49:31;;;;;;;;;5.25;3.75;;;;;;;;5120134;27;45362;-41
2023/07/27 13:51:56;;;;;;;;;5.00;3.75;;;;;;;;5120136;27;45427;-43
2023/07/27 13:54:21;;;;;;;;;9.00;6.00;;;;;;;;5120199;27;45252;-42
2023/07/27 13:56:47;;;;;;;;;9.25;7.00;;;;;;;;5119661;27;46385;-41
2023/07/27 13:59:12;;;;;;;;;7.25;5.75;;;;;;;;5119548;27;45270;-42
2023/07/27 14:01:37;;;;;;;;;4.25;3.00;;;;;;;;5119791;27;45537;-43
2023/07/27 14:04:03;;;;;;;;;8.00;5.75;;;;;;;;5120208;27;45235;-44
2023/07/27 14:06:29;;;;;;;;;6.00;4.00;;;;;;;;5118972;27;46084;-44
2023/07/27 14:08:55;;;;;;;;;6.00;4.00;;;;;;;;5119877;27;45373;-43
2023/07/27 14:11:20;;;;;;;;;7.40;4.60;;;;;;;;5119896;27;45275;-43
2023/07/27 14:13:45;;;;;;;;;5.25;4.75;;;;;;;;5119915;27;45235;-42
2023/07/27 14:16:10;;;;;;;;;4.00;4.00;;;;;;;;5119529;27;46131;-43
2023/07/27 14:18:36;;;;;;;;;5.50;4.75;;;;;;;;5119436;27;45232;-43
2023/07/27 14:21:01;;;;;;;;;5.50;5.00;;;;;;;;5119583;27;45366;-43
2023/07/27 14:23:26;;;;;;;;;4.50;4.00;;;;;;;;5119638;27;45230;-42
2023/07/27 14:25:51;;;;;;;;;5.75;4.50;;;;;;;;5119112;27;46135;-43
2023/07/27 14:28:16;;;;;;;;;4.75;3.75;;;;;;;;5119433;27;46020;-44
2023/07/27 14:30:43;;;;;;;;;6.75;6.00;;;;;;;;5119493;27;45339;-42
2023/07/27 14:33:08;;;;;;;;;6.80;6.60;;;;;;;;5119302;27;45433;-41
2023/07/27 14:35:33;;;;;;;;;5.00;5.00;;;;;;;;5119199;27;46088;-40